Los Angeles, CA (90026)

2:43 AM PDT on August 21, 2014 (GMT -0700)
Downtown Los Angeles | Change Station
CLOSE
Current Station
Personal Weather Station
Location: Los Angeles, CA
Elevation: 343 ft
Nearby Weather Stations
Active Advisory: Beach Hazard Statement

Elev 343 ft 34.06 °N, 118.26 °W | Updated 31 seconds ago

Clear
Clear
67.4 °F
Feels Like 67.4 °F
N
1.0
Wind Variable Wind from WNW
Gusts 4.0 mph

Today
High -- | Low -- °F
--% Chance of Precip.
Yesterday
High -- | Low -- °F
Precip. -- in
6:18 AM 7:32 PM
Waning Crescent, 15% visible
Pressure 29.91 in
Visibility 10.0 miles
Clouds Clear
Dew Point 62 °F
Humidity 83%
Rainfall 0.00 in
Snow Depth Not available.
UV 0 out of 12
Pollen 5.60 out of 12
Ozone Good
PM2.5 Good
Flu Activity Not available.
METAR KCQT 210847Z AUTO 00000KT 10SM CLR 19/16 A2992 RMK AO2 SLP128 T01940156 58002

More Conditions Fewer Conditions

Pressure 29.91 in
Visibility 10.0 miles
Clouds Clear
Dew Point 62 °F
Humidity 83%
Rainfall 0.00 in
Snow Depth Not available.
UV 0 out of 12
Pollen 5.60 out of 12
Ozone Good
PM2.5 Good
Flu Activity Not available.
METAR KCQT 210847Z AUTO 00000KT 10SM CLR 19/16 A2992 RMK AO2 SLP128 T01940156 58002

More Conditions Fewer Conditions

10-Day Weather Forecast

Almanac

Astronomy

Aug. 21, 2014 Rise Set
Actual Time 6:18 AM PDT 7:32 PM PDT
Civil Twilight 5:52 AM PDT 7:58 PM PDT
Nautical Twilight 5:21 AM PDT 8:29 PM PDT
Astronomical Twilight 4:49 AM PDT 9:02 PM PDT
Moon 2:57 AM PDT 5:01 PM PDT
Length of Visible Light 14h 06m
Length of Day
13h 13m
Tomorrow will be 1m 55s shorter.
Waning Crescent, 15% of the Moon is Illuminated
Today
Waning Crescent
Aug 25
New
Sep 2
First Quarter
Sep 8
Full
Sep 15
Last Quarter

Today's Extremes

State Highs State Lows

Community

WunderPhotos

Upload Photos

1,745,871 photos uploaded!

Nearby

Air Quality

  Air Quality AQ Index Pollutant
Yesterday Good
PM10
Yesterday Good
OZONE
Current Good
PM2.5
Current Good
OZONE
Thursday Good
PM10
Thursday Good
OZONE
Thursday Good
CO
Thursday Good
NO2

Snow Depth

Station Depth Elevation
Leavitt Lake 1 in 9400 ft
Leavitt Meadows 1 in 7200 ft
Summit Meadow 0 in 9122 ft
Blue Lakes 0 in 8000 ft
Monitor Pass 1 in 8350 ft

Earthquake Activity

City Distance Mag. Time & Date
Malibu Beach, California 27 miles 3.4 10:03 AM PDT
2014-08-15
Kettleman City, California 169 miles 2.9 11:32 PM PDT
2014-08-14
Yucca Valley, California 105 miles 3.8 8:57 PM PDT
2014-08-14
Minimum magnitude displayed is 2.5.

Coastal Water Temperatures

Place Temperature
Santa Monica Pier 70.0 °F
Los Angeles, CA 68.0 °F
La Jolla, CA 73.0 °F

Nearby Weather Stations